createdAt,value
2024-01-27T00:00:47.655Z,82.17
2024-01-27T00:03:21.347Z,82.17
2024-01-27T00:05:56.537Z,82.55
2024-01-27T00:08:30.582Z,82.25
2024-01-27T00:11:04.266Z,81.83
2024-01-27T00:13:37.939Z,84.33
2024-01-27T00:16:11.709Z,84.56
2024-01-27T00:18:45.523Z,84.05
2024-01-27T00:21:20.650Z,84.23
2024-01-27T00:23:55.099Z,84.18
2024-01-27T00:26:29.098Z,84.35
2024-01-27T00:29:02.951Z,85.15
2024-01-27T00:31:36.692Z,84.62
2024-01-27T00:34:10.620Z,83.94
2024-01-27T00:36:49.788Z,83.88
2024-01-27T00:39:23.919Z,83.28
2024-01-27T00:41:59.456Z,84.63
2024-01-27T00:44:33.212Z,85.60
2024-01-27T00:47:06.914Z,85.03
2024-01-27T00:49:40.732Z,86.75
2024-01-27T00:52:16.080Z,87.27
2024-01-27T00:54:49.740Z,86.82
2024-01-27T00:57:23.533Z,86.84
2024-01-27T00:59:57.361Z,86.48
2024-01-27T01:02:31.071Z,86.30
2024-01-27T01:05:05.368Z,86.59
2024-01-27T01:07:40.397Z,87.68
2024-01-27T01:10:14.106Z,88.18
2024-01-27T01:12:47.837Z,88.35
2024-01-27T01:15:21.571Z,87.30
2024-01-27T01:17:55.331Z,87.56
2024-01-27T01:20:29.105Z,87.58
2024-01-27T01:23:04.135Z,87.46
2024-01-27T01:25:37.852Z,87.48
2024-01-27T01:28:11.644Z,87.56
2024-01-27T01:30:45.299Z,87.51
2024-01-27T01:33:19.217Z,85.99
2024-01-27T01:35:53.254Z,85.95
2024-01-27T01:38:28.304Z,87.86
2024-01-27T01:41:02.308Z,88.53
2024-01-27T01:43:35.949Z,88.09
2024-01-27T01:46:10.176Z,88.04
2024-01-27T01:48:44.565Z,88.28
2024-01-27T01:51:18.654Z,88.69
2024-01-27T01:53:57.191Z,89.18
2024-01-27T01:56:31.080Z,88.76
2024-01-27T01:59:04.851Z,88.98
2024-01-27T02:01:38.782Z,89.08
2024-01-27T02:04:12.490Z,88.97
2024-01-27T02:06:46.265Z,90.60
2024-01-27T02:09:21.431Z,90.57
2024-01-27T02:11:55.442Z,90.54
2024-01-27T02:14:29.180Z,91.13
2024-01-27T02:17:03.490Z,92.05
2024-01-27T02:19:37.801Z,91.74
2024-01-27T02:22:11.719Z,91.70
2024-01-27T02:24:47.743Z,90.95
2024-01-27T02:27:21.547Z,90.27
2024-01-27T02:29:55.268Z,90.19
2024-01-27T02:32:28.961Z,91.16
2024-01-27T02:35:03.819Z,90.30
2024-01-27T02:37:37.557Z,89.89
2024-01-27T02:40:13.337Z,89.05
2024-01-27T02:42:47.105Z,88.78
2024-01-27T02:45:21.292Z,88.59
2024-01-27T02:47:55.295Z,89.02
2024-01-27T02:50:29.416Z,87.61
2024-01-27T02:53:03.314Z,87.39
2024-01-27T02:55:38.355Z,87.09
2024-01-27T02:58:12.022Z,87.20
2024-01-27T03:00:45.735Z,88.31
2024-01-27T03:03:19.565Z,88.30
2024-01-27T03:05:53.494Z,87.19
2024-01-27T03:08:27.227Z,86.43
2024-01-27T03:11:02.345Z,87.07
2024-01-27T03:13:36.050Z,86.88
2024-01-27T03:16:11.393Z,86.48
2024-01-27T03:18:45.117Z,86.87
2024-01-27T03:21:18.983Z,86.97
2024-01-27T03:23:52.728Z,85.46
2024-01-27T03:26:27.816Z,86.55
2024-01-27T03:29:02.113Z,86.32
2024-01-27T03:31:36.672Z,86.03
2024-01-27T03:34:10.809Z,85.67
2024-01-27T03:36:45.137Z,86.34
2024-01-27T03:39:19.042Z,87.09
2024-01-27T03:41:54.153Z,86.60
2024-01-27T03:44:27.803Z,87.54
2024-01-27T03:47:01.711Z,87.50
2024-01-27T03:49:35.805Z,88.53
2024-01-27T03:52:09.649Z,89.17
2024-01-27T03:54:43.323Z,89.81
2024-01-27T03:57:18.591Z,89.73
2024-01-27T03:59:52.308Z,91.61
2024-01-27T04:02:25.971Z,92.11
2024-01-27T04:04:59.703Z,93.36
2024-01-27T04:07:33.352Z,94.74
2024-01-27T04:10:07.880Z,94.83
2024-01-27T04:12:45.193Z,96.42
2024-01-27T04:15:18.992Z,96.76
2024-01-27T04:17:53.010Z,98.02
2024-01-27T04:20:26.833Z,98.36
2024-01-27T04:23:00.961Z,99.16
2024-01-27T04:25:34.698Z,99.42
2024-01-27T04:28:11.922Z,99.77
2024-01-27T04:30:45.647Z,99.86
2024-01-27T04:33:19.545Z,100.00
2024-01-27T04:35:53.800Z,100.00
2024-01-27T04:38:27.484Z,100.00
2024-01-27T04:41:01.153Z,100.00
2024-01-27T04:43:36.578Z,100.00
2024-01-27T04:46:10.762Z,100.00
2024-01-27T04:48:44.991Z,100.00
2024-01-27T04:51:18.748Z,100.00
2024-01-27T04:53:52.807Z,100.00
2024-01-27T04:56:26.831Z,100.00
2024-01-27T04:59:01.933Z,100.00
2024-01-27T05:01:35.782Z,100.00
2024-01-27T05:04:09.644Z,100.00
2024-01-27T05:06:46.268Z,100.00
2024-01-27T05:09:20.030Z,100.00
2024-01-27T05:11:54.707Z,100.00
2024-01-27T05:14:29.802Z,100.00
2024-01-27T05:17:03.437Z,100.00
2024-01-27T05:19:37.129Z,100.00
2024-01-27T05:22:10.781Z,100.00
2024-01-27T05:24:45.001Z,100.00
2024-01-27T05:27:18.882Z,100.00
2024-01-27T05:29:53.954Z,100.00
2024-01-27T05:32:27.653Z,100.00
2024-01-27T05:35:01.991Z,100.00
2024-01-27T05:37:35.778Z,100.00
2024-01-27T05:40:10.564Z,100.00
2024-01-27T05:42:46.134Z,100.00
2024-01-27T05:45:21.551Z,100.00
2024-01-27T05:47:55.374Z,100.00
2024-01-27T05:50:31.414Z,100.00
2024-01-27T05:53:05.416Z,100.00
2024-01-27T05:55:39.081Z,100.00
2024-01-27T05:58:12.763Z,100.00
2024-01-27T06:00:48.086Z,100.00
2024-01-27T06:03:22.025Z,100.00
2024-01-27T06:05:55.820Z,100.00
2024-01-27T06:08:29.506Z,100.00
2024-01-27T06:11:06.104Z,100.00
2024-01-27T06:13:42.218Z,100.00
2024-01-27T06:16:17.238Z,100.00
2024-01-27T06:18:51.001Z,100.00
2024-01-27T06:21:24.777Z,100.00
2024-01-27T06:23:58.469Z,100.00
2024-01-27T06:26:32.153Z,100.00
2024-01-27T06:29:05.855Z,100.00
2024-01-27T06:31:40.877Z,100.00
2024-01-27T06:34:14.756Z,100.00
2024-01-27T06:36:48.520Z,100.00
2024-01-27T06:39:22.862Z,100.00
2024-01-27T06:41:56.579Z,100.00
2024-01-27T06:44:30.443Z,100.00
2024-01-27T06:47:05.855Z,100.00
2024-01-27T06:49:40.098Z,100.00
2024-01-27T06:52:13.935Z,100.00
2024-01-27T06:54:47.583Z,100.00
2024-01-27T06:57:22.240Z,100.00
2024-01-27T06:59:57.168Z,100.00
2024-01-27T07:02:32.415Z,100.00
2024-01-27T07:05:06.942Z,100.00
2024-01-27T07:07:40.640Z,100.00
2024-01-27T07:10:14.357Z,100.00
2024-01-27T07:12:48.030Z,100.00
2024-01-27T07:15:22.853Z,100.00
2024-01-27T07:17:58.124Z,100.00
2024-01-27T07:20:31.873Z,100.00
2024-01-27T07:23:05.897Z,100.00
2024-01-27T07:25:39.560Z,100.00
2024-01-27T07:28:13.291Z,100.00
2024-01-27T07:30:47.730Z,100.00
2024-01-27T07:33:23.294Z,100.00
2024-01-27T07:35:57.804Z,100.00
2024-01-27T07:39:56.713Z,100.00
2024-01-27T07:42:31.018Z,100.00
2024-01-27T07:45:06.452Z,100.00
2024-01-27T07:47:40.422Z,100.00
2024-01-27T07:50:16.234Z,100.00
2024-01-27T07:52:49.983Z,100.00
2024-01-27T07:55:23.817Z,100.00
2024-01-27T07:57:57.824Z,100.00
2024-01-27T08:00:32.609Z,100.00
2024-01-27T08:03:07.177Z,100.00
2024-01-27T08:05:42.295Z,100.00
2024-01-27T08:08:15.941Z,100.00
2024-01-27T08:10:49.660Z,100.00
2024-01-27T08:13:23.366Z,100.00
2024-01-27T08:15:57.114Z,99.02
2024-01-27T08:18:30.936Z,97.70
2024-01-27T08:21:06.637Z,96.79
2024-01-27T08:23:41.062Z,93.56
2024-01-27T08:26:14.840Z,94.25
2024-01-27T08:28:48.631Z,95.01
2024-01-27T08:31:22.344Z,94.29
2024-01-27T08:33:56.107Z,93.14
2024-01-27T08:36:31.240Z,93.37
2024-01-27T08:39:05.598Z,93.41
2024-01-27T08:41:39.245Z,92.74
2024-01-27T08:44:13.040Z,92.40
2024-01-27T08:46:46.741Z,92.71
2024-01-27T08:49:20.679Z,93.39
2024-01-27T08:51:56.525Z,93.46
2024-01-27T08:54:30.317Z,92.95
2024-01-27T08:57:04.463Z,93.30
2024-01-27T08:59:39.054Z,94.53
2024-01-27T09:02:12.854Z,96.19
2024-01-27T09:04:46.582Z,96.86
2024-01-27T09:07:21.766Z,95.88
2024-01-27T09:09:55.447Z,94.65
2024-01-27T09:12:29.303Z,94.81
2024-01-27T09:15:04.026Z,95.30
2024-01-27T09:17:38.303Z,94.70
2024-01-27T09:20:13.456Z,94.09
2024-01-27T09:22:50.841Z,94.05
2024-01-27T09:25:25.697Z,94.51
2024-01-27T09:28:01.958Z,94.25
2024-01-27T09:30:39.641Z,95.92
2024-01-27T09:33:14.584Z,95.34
2024-01-27T09:35:48.989Z,96.70
2024-01-27T09:38:24.380Z,95.81
2024-01-27T09:40:58.555Z,96.00
2024-01-27T09:43:33.373Z,95.85
2024-01-27T09:46:07.461Z,96.58
2024-01-27T09:48:42.059Z,96.53
2024-01-27T09:51:15.936Z,96.06
2024-01-27T09:53:52.514Z,96.68
2024-01-27T09:56:27.288Z,96.53
2024-01-27T09:59:01.996Z,97.95
2024-01-27T10:01:38.112Z,98.82
2024-01-27T10:04:12.130Z,100.00
2024-01-27T10:06:47.554Z,100.00
2024-01-27T10:09:22.990Z,100.00
2024-01-27T10:11:58.954Z,100.00
2024-01-27T10:14:41.275Z,99.64
2024-01-27T10:17:15.359Z,99.71
2024-01-27T10:19:49.401Z,100.00
2024-01-27T10:22:23.160Z,99.52
2024-01-27T10:24:58.185Z,99.11
2024-01-27T10:27:31.967Z,98.78
2024-01-27T10:30:08.649Z,98.92
2024-01-27T10:32:42.493Z,99.05
2024-01-27T10:35:16.647Z,98.92
2024-01-27T10:37:57.578Z,98.56
2024-01-27T10:40:34.680Z,99.14
2024-01-27T10:43:09.879Z,98.30
2024-01-27T10:45:44.135Z,96.06
2024-01-27T10:48:18.328Z,96.25
2024-01-27T10:50:53.153Z,95.91
2024-01-27T10:53:28.667Z,95.18
2024-01-27T10:56:10.728Z,95.47
2024-01-27T10:58:48.951Z,94.28
2024-01-27T11:01:25.512Z,94.92
2024-01-27T11:04:01.905Z,94.05
2024-01-27T11:06:38.197Z,94.25
2024-01-27T11:09:14.155Z,93.68
2024-01-27T11:11:50.454Z,93.71
2024-01-27T11:14:24.519Z,94.03
2024-01-27T11:17:02.237Z,95.34
2024-01-27T11:19:36.861Z,94.43
2024-01-27T11:22:27.291Z,93.92
2024-01-27T11:25:09.956Z,94.69
2024-01-27T11:27:48.035Z,94.73
2024-01-27T11:30:30.333Z,94.95
2024-01-27T11:33:06.042Z,94.33
2024-01-27T11:35:40.207Z,94.31
2024-01-27T11:38:15.434Z,94.53
2024-01-27T11:40:50.922Z,93.97
2024-01-27T11:43:27.014Z,93.82
2024-01-27T11:46:01.832Z,93.96
2024-01-27T11:48:44.610Z,95.59
2024-01-27T11:51:19.841Z,96.07
2024-01-27T11:53:54.161Z,96.17
2024-01-27T11:56:30.515Z,96.71
2024-01-27T11:59:06.250Z,96.31
2024-01-27T12:01:41.054Z,95.82
2024-01-27T12:04:15.992Z,95.46
2024-01-27T12:06:51.916Z,94.93
2024-01-27T12:09:26.308Z,93.54
2024-01-27T12:12:00.862Z,93.87
2024-01-27T12:14:42.416Z,90.62
2024-01-27T12:17:16.964Z,92.09
2024-01-27T12:19:53.981Z,90.47
2024-01-27T12:22:29.571Z,88.63
2024-01-27T12:25:11.035Z,88.17
2024-01-27T12:27:46.275Z,87.22
2024-01-27T12:30:23.651Z,86.43
2024-01-27T12:32:57.765Z,87.54
2024-01-27T12:35:31.975Z,86.57
2024-01-27T12:38:08.804Z,85.88
2024-01-27T12:40:42.993Z,86.75
2024-01-27T12:43:17.277Z,86.62
2024-01-27T12:45:52.786Z,86.21
2024-01-27T12:48:26.825Z,85.88
2024-01-27T12:54:04.027Z,84.95
2024-01-27T12:56:37.987Z,84.86
2024-01-27T12:59:12.492Z,84.13
2024-01-27T13:01:48.464Z,82.43
2024-01-27T13:04:22.509Z,83.75
2024-01-27T13:06:56.751Z,82.15
2024-01-27T13:09:30.564Z,80.78
2024-01-27T13:12:04.647Z,80.23
2024-01-27T13:14:38.356Z,78.68
2024-01-27T13:17:15.419Z,79.23
2024-01-27T13:19:49.219Z,79.37
2024-01-27T13:22:25.594Z,80.44
2024-01-27T13:25:04.791Z,76.54
2024-01-27T13:27:39.793Z,75.47
2024-01-27T13:30:14.237Z,74.97
2024-01-27T13:32:49.439Z,75.99
2024-01-27T13:35:23.211Z,72.83
2024-01-27T13:37:56.862Z,74.11
2024-01-27T13:40:30.590Z,73.57
2024-01-27T13:43:04.304Z,75.45
2024-01-27T13:45:38.005Z,74.02
2024-01-27T13:48:13.274Z,71.92
2024-01-27T13:50:47.288Z,73.07
2024-01-27T13:53:22.262Z,72.21
2024-01-27T13:55:56.371Z,72.95
2024-01-27T13:58:30.859Z,73.04
2024-01-27T14:01:04.894Z,73.12
2024-01-27T14:03:40.319Z,71.67
2024-01-27T14:06:14.724Z,71.44
2024-01-27T14:08:48.627Z,71.10
2024-01-27T14:11:23.145Z,71.34
2024-01-27T14:13:56.844Z,71.24
2024-01-27T14:16:30.772Z,70.96
2024-01-27T14:19:05.943Z,70.89
2024-01-27T14:21:40.097Z,70.91
2024-01-27T14:24:14.008Z,73.68
2024-01-27T14:26:47.698Z,72.84
2024-01-27T14:29:21.371Z,70.38
2024-01-27T14:31:55.059Z,70.69
2024-01-27T14:34:30.254Z,71.07
2024-01-27T14:37:04.076Z,70.34
2024-01-27T14:39:37.724Z,72.17
2024-01-27T14:42:11.442Z,71.25
2024-01-27T14:44:46.558Z,70.15
2024-01-27T14:47:21.406Z,71.32
2024-01-27T14:49:56.734Z,71.60
2024-01-27T14:52:30.655Z,71.35
2024-01-27T14:55:04.559Z,72.33
2024-01-27T14:57:38.811Z,71.31
2024-01-27T15:00:16.069Z,71.72
2024-01-27T15:02:50.137Z,72.15
2024-01-27T15:05:25.240Z,70.56
2024-01-27T15:07:58.918Z,69.63
2024-01-27T15:10:33.213Z,70.72
2024-01-27T15:13:07.229Z,71.32
2024-01-27T15:15:40.957Z,71.71
2024-01-27T15:18:14.912Z,71.54
2024-01-27T15:20:50.029Z,72.23
2024-01-27T15:23:26.398Z,71.70
2024-01-27T15:26:02.633Z,73.89
2024-01-27T15:28:36.377Z,73.99
2024-01-27T15:31:10.041Z,74.25
2024-01-27T15:33:44.017Z,73.30
2024-01-27T15:36:19.121Z,74.01
2024-01-27T15:38:52.851Z,74.34
2024-01-27T15:41:26.519Z,73.37
2024-01-27T15:44:01.895Z,71.26
2024-01-27T15:46:35.582Z,74.07
2024-01-27T15:49:09.438Z,74.04
2024-01-27T15:51:44.624Z,74.03
2024-01-27T15:54:19.453Z,72.93
2024-01-27T15:56:53.262Z,72.20
2024-01-27T15:59:27.084Z,70.75
2024-01-27T16:02:00.776Z,71.66
2024-01-27T16:04:35.335Z,70.38
2024-01-27T16:07:10.524Z,68.49
2024-01-27T16:09:48.093Z,70.31
2024-01-27T16:12:21.849Z,70.15
2024-01-27T16:14:55.657Z,71.15
2024-01-27T16:17:29.355Z,68.08
2024-01-27T16:20:04.651Z,70.15
2024-01-27T16:22:39.843Z,70.45
2024-01-27T16:25:13.557Z,69.46
2024-01-27T16:27:47.237Z,68.99
2024-01-27T16:30:21.027Z,69.84
2024-01-27T16:32:54.767Z,68.23
2024-01-27T16:35:28.599Z,68.89
2024-01-27T16:38:03.831Z,68.64
2024-01-27T16:40:37.618Z,68.51
2024-01-27T16:43:11.242Z,68.71
2024-01-27T16:45:44.976Z,67.95
2024-01-27T16:48:18.835Z,69.14
2024-01-27T16:50:52.614Z,67.66
2024-01-27T16:53:27.632Z,67.83
2024-01-27T16:56:01.874Z,68.70
2024-01-27T16:58:35.580Z,70.14
2024-01-27T17:01:09.337Z,70.56
2024-01-27T17:03:43.218Z,70.69
2024-01-27T17:06:18.527Z,70.30
2024-01-27T17:08:54.547Z,71.55
2024-01-27T17:11:28.204Z,70.74
2024-01-27T17:14:01.873Z,71.06
2024-01-27T17:16:35.540Z,69.92
2024-01-27T17:19:09.310Z,70.78
2024-01-27T17:21:43.385Z,69.68
2024-01-27T17:24:18.693Z,72.35
2024-01-27T17:26:52.596Z,72.24
2024-01-27T17:29:26.280Z,71.79
2024-01-27T17:31:59.975Z,70.90
2024-01-27T17:34:34.718Z,70.62
2024-01-27T17:37:08.520Z,70.23
2024-01-27T17:39:43.607Z,71.45
2024-01-27T17:42:18.194Z,71.65
2024-01-27T17:44:52.477Z,71.41
2024-01-27T17:47:26.183Z,73.06
2024-01-27T17:49:59.911Z,72.15
2024-01-27T17:52:37.408Z,73.30
2024-01-27T17:55:14.023Z,73.93
2024-01-27T17:57:47.798Z,72.82
2024-01-27T18:00:22.081Z,73.49
2024-01-27T18:02:56.109Z,73.15
2024-01-27T18:05:29.808Z,73.77
2024-01-27T18:08:04.047Z,74.36
2024-01-27T18:10:39.132Z,72.24
2024-01-27T18:13:13.061Z,71.86
2024-01-27T18:15:46.819Z,71.31
2024-01-27T18:18:20.806Z,70.73
2024-01-27T18:20:54.884Z,71.37
2024-01-27T18:23:28.616Z,72.56
2024-01-27T18:26:03.794Z,73.25
2024-01-27T18:28:37.472Z,73.58
2024-01-27T18:31:11.457Z,72.49
2024-01-27T18:33:47.165Z,71.96
2024-01-27T18:36:22.341Z,70.67
2024-01-27T18:38:56.429Z,71.27
2024-01-27T18:41:31.494Z,71.73
2024-01-27T18:44:05.316Z,71.30
2024-01-27T18:46:39.053Z,71.97
2024-01-27T18:49:15.082Z,71.56
2024-01-27T18:51:50.197Z,71.22
2024-01-27T18:54:24.560Z,71.75
2024-01-27T18:57:02.177Z,71.92
2024-01-27T18:59:35.911Z,71.20
2024-01-27T19:02:11.538Z,72.17
2024-01-27T19:04:45.605Z,70.93
2024-01-27T19:07:19.450Z,69.96
2024-01-27T19:09:53.144Z,68.70
2024-01-27T19:12:28.233Z,70.60
2024-01-27T19:15:02.717Z,71.16
2024-01-27T19:17:36.594Z,71.25
2024-01-27T19:20:12.713Z,70.27
2024-01-27T19:22:47.742Z,70.19
2024-01-27T19:25:21.554Z,70.94
2024-01-27T19:27:59.794Z,69.18
2024-01-27T19:30:34.830Z,69.60
2024-01-27T19:33:08.693Z,70.73
2024-01-27T19:35:42.411Z,71.32
2024-01-27T19:38:16.499Z,70.73
2024-01-27T19:41:02.466Z,72.04
2024-01-27T19:43:47.841Z,71.72
2024-01-27T19:46:21.673Z,70.05
2024-01-27T19:48:55.627Z,71.04
2024-01-27T19:51:30.358Z,70.23
2024-01-27T19:54:04.244Z,70.53
2024-01-27T19:56:37.965Z,69.38
2024-01-27T19:59:13.006Z,69.50
2024-01-27T20:01:46.629Z,70.88
2024-01-27T20:04:20.539Z,69.21
2024-01-27T20:06:57.082Z,69.50
2024-01-27T20:09:30.959Z,68.92
2024-01-27T20:12:05.093Z,68.87
2024-01-27T20:14:40.092Z,69.67
2024-01-27T20:17:14.029Z,70.05
2024-01-27T20:19:49.178Z,70.22
2024-01-27T20:22:22.954Z,69.96
2024-01-27T20:24:57.350Z,69.70
2024-01-27T20:27:32.238Z,71.13
2024-01-27T20:30:09.216Z,70.57
2024-01-27T20:32:43.186Z,69.70
2024-01-27T20:35:17.060Z,70.37
2024-01-27T20:37:51.306Z,70.49
2024-01-27T20:40:26.182Z,70.08
2024-01-27T20:43:01.957Z,70.22
2024-01-27T20:45:37.021Z,70.20
2024-01-27T20:48:14.555Z,70.27
2024-01-27T20:50:48.442Z,70.84
2024-01-27T20:53:22.301Z,70.92
2024-01-27T20:55:56.314Z,71.29
2024-01-27T20:58:30.204Z,71.16
2024-01-27T21:01:06.199Z,71.05
2024-01-27T21:03:40.500Z,72.35
2024-01-27T21:06:14.320Z,72.05
2024-01-27T21:08:47.997Z,71.25
2024-01-27T21:11:21.657Z,70.94
2024-01-27T21:13:55.856Z,73.20
2024-01-27T21:16:33.184Z,72.78
2024-01-27T21:19:07.749Z,73.29
2024-01-27T21:21:41.433Z,72.93
2024-01-27T21:24:15.931Z,73.47
2024-01-27T21:26:49.623Z,74.58
2024-01-27T21:29:23.330Z,74.83
2024-01-27T21:32:00.873Z,74.81
2024-01-27T21:34:34.657Z,74.75
2024-01-27T21:37:11.245Z,74.10
2024-01-27T21:39:45.282Z,74.79
2024-01-27T21:42:19.436Z,74.96
2024-01-27T21:44:53.424Z,74.66
2024-01-27T21:47:28.465Z,74.28
2024-01-27T21:50:02.372Z,75.82
2024-01-27T21:52:36.399Z,76.50
2024-01-27T21:55:10.366Z,76.13
2024-01-27T21:57:44.149Z,75.62
2024-01-27T22:00:18.841Z,75.90
2024-01-27T22:02:54.071Z,75.58
2024-01-27T22:05:28.188Z,76.67
2024-01-27T22:08:04.436Z,75.29
2024-01-27T22:10:38.364Z,76.01
2024-01-27T22:13:12.001Z,75.82
2024-01-27T22:15:45.725Z,76.46
2024-01-27T22:18:20.941Z,75.96
2024-01-27T22:20:55.774Z,75.92
2024-01-27T22:23:29.460Z,75.26
2024-01-27T22:26:03.464Z,75.70
2024-01-27T22:28:38.774Z,75.56
2024-01-27T22:31:12.425Z,75.64
2024-01-27T22:33:47.564Z,74.74
2024-01-27T22:36:21.321Z,75.38
2024-01-27T22:38:56.688Z,75.65
2024-01-27T22:41:31.436Z,76.29
2024-01-27T22:44:05.507Z,77.01
2024-01-27T22:46:39.816Z,74.97
2024-01-27T22:49:15.015Z,75.26
2024-01-27T22:51:49.977Z,76.24
2024-01-27T22:54:24.005Z,76.24
2024-01-27T22:56:57.667Z,76.12
2024-01-27T22:59:31.281Z,76.20
2024-01-27T23:02:05.088Z,75.55
2024-01-27T23:04:40.106Z,76.38
2024-01-27T23:07:14.081Z,76.59
2024-01-27T23:09:50.377Z,76.49
2024-01-27T23:12:25.131Z,76.44
2024-01-27T23:14:58.917Z,77.25
2024-01-27T23:17:33.008Z,76.96
2024-01-27T23:20:09.656Z,75.74
2024-01-27T23:22:43.665Z,76.48
2024-01-27T23:25:17.293Z,76.70
2024-01-27T23:27:50.996Z,77.51
2024-01-27T23:30:24.913Z,77.54
2024-01-27T23:32:58.662Z,76.24
2024-01-27T23:35:34.003Z,76.44
2024-01-27T23:38:08.582Z,77.36
2024-01-27T23:40:42.246Z,77.54
2024-01-27T23:43:15.925Z,77.26
2024-01-27T23:45:50.668Z,77.11
2024-01-27T23:48:24.756Z,76.87
2024-01-27T23:51:00.231Z,76.83
2024-01-27T23:53:34.233Z,77.09
2024-01-27T23:56:08.667Z,77.51
2024-01-27T23:58:42.304Z,76.99
